sensor_id;sensor_type;location;lat;lon;timestamp;pressure;altitude;pressure_sealevel;temperature;humidity
5413;BME280;2729;50.056;8.678;2023-05-07T00:02:21;100246.78;;;17.12;100.00
5413;BME280;2729;50.056;8.678;2023-05-07T00:04:47;100252.69;;;17.17;100.00
5413;BME280;2729;50.056;8.678;2023-05-07T00:07:13;100250.91;;;17.18;100.00
5413;BME280;2729;50.056;8.678;2023-05-07T00:09:38;100252.59;;;17.19;100.00
5413;BME280;2729;50.056;8.678;2023-05-07T00:12:05;100251.84;;;17.17;100.00
5413;BME280;2729;50.056;8.678;2023-05-07T00:14:31;100249.50;;;17.11;100.00
5413;BME280;2729;50.056;8.678;2023-05-07T00:16:57;100255.56;;;17.13;100.00
5413;BME280;2729;50.056;8.678;2023-05-07T00:19:27;100251.75;;;17.18;100.00
5413;BME280;2729;50.056;8.678;2023-05-07T00:21:53;100251.91;;;17.15;100.00
5413;BME280;2729;50.056;8.678;2023-05-07T00:24:25;100249.34;;;17.14;100.00
5413;BME280;2729;50.056;8.678;2023-05-07T00:26:51;100251.31;;;17.10;100.00
5413;BME280;2729;50.056;8.678;2023-05-07T00:29:20;100251.47;;;17.07;100.00
5413;BME280;2729;50.056;8.678;2023-05-07T00:31:46;100244.47;;;17.06;100.00
5413;BME280;2729;50.056;8.678;2023-05-07T00:34:14;100250.38;;;17.11;100.00
5413;BME280;2729;50.056;8.678;2023-05-07T00:36:40;100244.25;;;17.11;100.00
5413;BME280;2729;50.056;8.678;2023-05-07T00:39:06;100248.59;;;17.12;100.00
5413;BME280;2729;50.056;8.678;2023-05-07T00:41:32;100246.72;;;17.14;100.00
5413;BME280;2729;50.056;8.678;2023-05-07T00:43:58;100246.25;;;17.06;100.00
5413;BME280;2729;50.056;8.678;2023-05-07T00:46:24;100244.09;;;16.96;100.00
5413;BME280;2729;50.056;8.678;2023-05-07T00:48:50;100246.44;;;16.85;100.00
5413;BME280;2729;50.056;8.678;2023-05-07T00:51:17;100244.75;;;16.84;100.00
5413;BME280;2729;50.056;8.678;2023-05-07T00:53:44;100241.47;;;16.96;100.00
5413;BME280;2729;50.056;8.678;2023-05-07T00:56:10;100241.31;;;16.99;100.00
5413;BME280;2729;50.056;8.678;2023-05-07T00:58:37;100235.72;;;17.06;100.00
5413;BME280;2729;50.056;8.678;2023-05-07T01:01:03;100234.53;;;17.11;100.00
5413;BME280;2729;50.056;8.678;2023-05-07T01:03:29;100237.88;;;17.15;100.00
5413;BME280;2729;50.056;8.678;2023-05-07T01:05:57;100240.44;;;17.16;100.00
5413;BME280;2729;50.056;8.678;2023-05-07T01:08:24;100227.16;;;17.18;100.00
5413;BME280;2729;50.056;8.678;2023-05-07T01:10:52;100229.44;;;17.08;100.00
5413;BME280;2729;50.056;8.678;2023-05-07T01:13:18;100232.91;;;17.09;100.00
5413;BME280;2729;50.056;8.678;2023-05-07T01:15:45;100232.75;;;17.12;100.00
5413;BME280;2729;50.056;8.678;2023-05-07T01:18:11;100225.72;;;16.95;100.00
5413;BME280;2729;50.056;8.678;2023-05-07T01:20:37;100229.84;;;16.83;100.00
5413;BME280;2729;50.056;8.678;2023-05-07T01:23:03;100228.31;;;16.79;100.00
5413;BME280;2729;50.056;8.678;2023-05-07T01:25:29;100225.88;;;16.92;100.00
5413;BME280;2729;50.056;8.678;2023-05-07T01:27:58;100228.22;;;16.81;100.00
5413;BME280;2729;50.056;8.678;2023-05-07T01:30:51;100226.13;;;16.87;100.00
5413;BME280;2729;50.056;8.678;2023-05-07T01:33:20;100227.22;;;16.83;100.00
5413;BME280;2729;50.056;8.678;2023-05-07T01:35:50;100234.28;;;16.83;100.00
5413;BME280;2729;50.056;8.678;2023-05-07T01:38:17;100231.09;;;16.76;100.00
5413;BME280;2729;50.056;8.678;2023-05-07T01:40:44;100236.38;;;16.76;100.00
5413;BME280;2729;50.056;8.678;2023-05-07T01:43:11;100230.56;;;16.69;100.00
5413;BME280;2729;50.056;8.678;2023-05-07T01:45:38;100236.84;;;16.67;100.00
5413;BME280;2729;50.056;8.678;2023-05-07T01:48:05;100231.31;;;16.71;100.00
5413;BME280;2729;50.056;8.678;2023-05-07T01:50:32;100231.56;;;16.67;100.00
5413;BME280;2729;50.056;8.678;2023-05-07T01:52:59;100232.41;;;16.67;100.00
5413;BME280;2729;50.056;8.678;2023-05-07T01:55:25;100229.13;;;16.62;100.00
5413;BME280;2729;50.056;8.678;2023-05-07T01:57:51;100225.38;;;16.68;100.00
5413;BME280;2729;50.056;8.678;2023-05-07T02:00:17;100235.06;;;16.67;100.00
5413;BME280;2729;50.056;8.678;2023-05-07T02:02:44;100219.28;;;16.49;100.00
5413;BME280;2729;50.056;8.678;2023-05-07T02:05:21;100222.22;;;16.60;100.00
5413;BME280;2729;50.056;8.678;2023-05-07T02:07:54;100221.69;;;16.53;100.00
5413;BME280;2729;50.056;8.678;2023-05-07T02:10:20;100232.41;;;16.67;100.00
5413;BME280;2729;50.056;8.678;2023-05-07T02:12:46;100235.34;;;16.79;100.00
5413;BME280;2729;50.056;8.678;2023-05-07T02:15:12;100230.00;;;16.80;100.00
5413;BME280;2729;50.056;8.678;2023-05-07T02:17:58;100226.13;;;16.70;100.00
5413;BME280;2729;50.056;8.678;2023-05-07T02:20:24;100232.97;;;16.74;100.00
5413;BME280;2729;50.056;8.678;2023-05-07T02:22:54;100239.25;;;16.71;100.00
5413;BME280;2729;50.056;8.678;2023-05-07T02:25:20;100242.50;;;16.77;100.00
5413;BME280;2729;50.056;8.678;2023-05-07T02:27:46;100240.09;;;16.72;100.00
5413;BME280;2729;50.056;8.678;2023-05-07T02:30:14;100241.63;;;16.76;100.00
5413;BME280;2729;50.056;8.678;2023-05-07T02:32:40;100239.47;;;16.67;100.00
5413;BME280;2729;50.056;8.678;2023-05-07T02:35:06;100242.03;;;16.68;100.00
5413;BME280;2729;50.056;8.678;2023-05-07T02:37:33;100239.31;;;16.70;100.00
5413;BME280;2729;50.056;8.678;2023-05-07T02:40:00;100233.03;;;16.73;100.00
5413;BME280;2729;50.056;8.678;2023-05-07T02:42:27;100240.09;;;16.72;100.00
5413;BME280;2729;50.056;8.678;2023-05-07T02:44:53;100231.00;;;16.60;100.00
5413;BME280;2729;50.056;8.678;2023-05-07T02:47:19;100245.94;;;16.60;100.00
5413;BME280;2729;50.056;8.678;2023-05-07T02:49:45;100245.00;;;16.61;100.00
5413;BME280;2729;50.056;8.678;2023-05-07T02:52:11;100239.66;;;16.62;100.00
5413;BME280;2729;50.056;8.678;2023-05-07T02:54:37;100239.81;;;16.59;100.00
5413;BME280;2729;50.056;8.678;2023-05-07T02:57:03;100229.50;;;16.55;100.00
5413;BME280;2729;50.056;8.678;2023-05-07T02:59:29;100225.56;;;16.46;100.00
5413;BME280;2729;50.056;8.678;2023-05-07T03:01:56;100231.69;;;16.47;100.00
5413;BME280;2729;50.056;8.678;2023-05-07T03:04:22;100230.06;;;16.44;100.00
5413;BME280;2729;50.056;8.678;2023-05-07T03:06:48;100233.91;;;16.37;100.00
5413;BME280;2729;50.056;8.678;2023-05-07T03:09:14;100231.91;;;16.42;100.00
5413;BME280;2729;50.056;8.678;2023-05-07T03:11:40;100227.50;;;16.43;100.00
5413;BME280;2729;50.056;8.678;2023-05-07T03:14:06;100233.75;;;16.40;100.00
5413;BME280;2729;50.056;8.678;2023-05-07T03:16:32;100221.91;;;16.31;100.00
5413;BME280;2729;50.056;8.678;2023-05-07T03:18:58;100215.56;;;16.35;100.00
5413;BME280;2729;50.056;8.678;2023-05-07T03:21:24;100217.88;;;16.24;100.00
5413;BME280;2729;50.056;8.678;2023-05-07T03:23:52;100223.84;;;16.28;100.00
5413;BME280;2729;50.056;8.678;2023-05-07T03:26:18;100234.59;;;16.23;100.00
5413;BME280;2729;50.056;8.678;2023-05-07T03:28:44;100227.84;;;16.18;100.00
5413;BME280;2729;50.056;8.678;2023-05-07T03:31:13;100227.91;;;16.16;100.00
5413;BME280;2729;50.056;8.678;2023-05-07T03:33:51;100225.00;;;16.22;100.00
5413;BME280;2729;50.056;8.678;2023-05-07T03:36:17;100225.28;;;16.16;100.00
5413;BME280;2729;50.056;8.678;2023-05-07T03:38:43;100223.88;;;16.09;100.00
5413;BME280;2729;50.056;8.678;2023-05-07T03:41:09;100220.69;;;16.02;100.00
5413;BME280;2729;50.056;8.678;2023-05-07T03:43:35;100222.75;;;15.96;100.00
5413;BME280;2729;50.056;8.678;2023-05-07T03:46:06;100212.09;;;15.99;100.00
5413;BME280;2729;50.056;8.678;2023-05-07T03:48:32;100219.06;;;16.00;100.00
5413;BME280;2729;50.056;8.678;2023-05-07T03:50:59;100208.53;;;16.00;100.00
5413;BME280;2729;50.056;8.678;2023-05-07T03:53:29;100213.94;;;15.97;100.00
5413;BME280;2729;50.056;8.678;2023-05-07T03:55:54;100215.84;;;16.12;100.00
5413;BME280;2729;50.056;8.678;2023-05-07T03:58:20;100218.78;;;16.23;100.00
5413;BME280;2729;50.056;8.678;2023-05-07T04:00:47;100214.06;;;16.30;100.00
5413;BME280;2729;50.056;8.678;2023-05-07T04:03:21;100211.03;;;16.20;100.00
5413;BME280;2729;50.056;8.678;2023-05-07T04:05:47;100217.88;;;16.24;100.00
5413;BME280;2729;50.056;8.678;2023-05-07T04:08:14;100228.41;;;16.24;100.00
5413;BME280;2729;50.056;8.678;2023-05-07T04:10:44;100228.84;;;16.15;100.00
5413;BME280;2729;50.056;8.678;2023-05-07T04:13:13;100238.69;;;16.12;100.00
5413;BME280;2729;50.056;8.678;2023-05-07T04:15:39;100234.41;;;16.09;100.00
5413;BME280;2729;50.056;8.678;2023-05-07T04:18:09;100237.13;;;16.07;100.00
5413;BME280;2729;50.056;8.678;2023-05-07T04:20:35;100238.97;;;16.05;100.00
5413;BME280;2729;50.056;8.678;2023-05-07T04:23:04;100240.75;;;16.05;100.00
5413;BME280;2729;50.056;8.678;2023-05-07T04:25:31;100252.06;;;16.07;100.00
5413;BME280;2729;50.056;8.678;2023-05-07T04:28:06;100251.34;;;16.03;100.00
5413;BME280;2729;50.056;8.678;2023-05-07T04:30:32;100256.56;;;16.05;100.00
5413;BME280;2729;50.056;8.678;2023-05-07T04:32:58;100255.91;;;16.00;100.00
5413;BME280;2729;50.056;8.678;2023-05-07T04:35:26;100259.97;;;16.07;100.00
5413;BME280;2729;50.056;8.678;2023-05-07T04:37:52;100263.84;;;16.17;100.00
5413;BME280;2729;50.056;8.678;2023-05-07T04:40:18;100258.19;;;16.07;100.00
5413;BME280;2729;50.056;8.678;2023-05-07T04:42:45;100266.22;;;16.04;100.00
5413;BME280;2729;50.056;8.678;2023-05-07T04:45:11;100267.94;;;16.05;100.00
5413;BME280;2729;50.056;8.678;2023-05-07T04:47:40;100270.16;;;15.96;100.00
5413;BME280;2729;50.056;8.678;2023-05-07T04:50:06;100263.25;;;15.93;100.00
5413;BME280;2729;50.056;8.678;2023-05-07T04:52:34;100257.28;;;15.90;100.00
5413;BME280;2729;50.056;8.678;2023-05-07T04:55:00;100264.47;;;15.86;100.00
5413;BME280;2729;50.056;8.678;2023-05-07T04:57:29;100263.88;;;15.98;100.00
5413;BME280;2729;50.056;8.678;2023-05-07T04:59:55;100265.09;;;16.10;100.00
5413;BME280;2729;50.056;8.678;2023-05-07T05:02:21;100268.63;;;16.09;100.00
5413;BME280;2729;50.056;8.678;2023-05-07T05:04:47;100268.63;;;16.09;100.00
5413;BME280;2729;50.056;8.678;2023-05-07T05:07:14;100274.41;;;16.17;100.00
5413;BME280;2729;50.056;8.678;2023-05-07T05:09:40;100271.16;;;16.29;100.00
5413;BME280;2729;50.056;8.678;2023-05-07T05:12:07;100281.97;;;16.42;100.00
5413;BME280;2729;50.056;8.678;2023-05-07T05:14:34;100283.19;;;16.35;100.00
5413;BME280;2729;50.056;8.678;2023-05-07T05:17:00;100285.38;;;16.44;100.00
5413;BME280;2729;50.056;8.678;2023-05-07T05:19:26;100278.47;;;16.42;100.00
5413;BME280;2729;50.056;8.678;2023-05-07T05:21:52;100287.00;;;16.47;100.00
5413;BME280;2729;50.056;8.678;2023-05-07T05:24:18;100295.53;;;16.52;100.00
5413;BME280;2729;50.056;8.678;2023-05-07T05:26:44;100296.09;;;16.58;100.00
5413;BME280;2729;50.056;8.678;2023-05-07T05:29:10;100293.59;;;16.55;100.00
5413;BME280;2729;50.056;8.678;2023-05-07T05:31:39;100300.88;;;16.69;100.00
5413;BME280;2729;50.056;8.678;2023-05-07T05:34:07;100300.09;;;16.67;100.00
5413;BME280;2729;50.056;8.678;2023-05-07T05:36:33;100303.66;;;16.83;100.00
5413;BME280;2729;50.056;8.678;2023-05-07T05:38:59;100305.06;;;16.90;100.00
5413;BME280;2729;50.056;8.678;2023-05-07T05:41:25;100301.25;;;16.96;100.00
5413;BME280;2729;50.056;8.678;2023-05-07T05:43:51;100292.97;;;17.03;100.00
5413;BME280;2729;50.056;8.678;2023-05-07T05:46:18;100305.69;;;17.13;100.00
5413;BME280;2729;50.056;8.678;2023-05-07T05:48:43;100300.16;;;17.17;100.00
5413;BME280;2729;50.056;8.678;2023-05-07T05:51:10;100295.41;;;17.24;100.00
5413;BME280;2729;50.056;8.678;2023-05-07T05:53:36;100300.16;;;17.17;100.00
5413;BME280;2729;50.056;8.678;2023-05-07T05:56:03;100304.56;;;17.34;100.00
5413;BME280;2729;50.056;8.678;2023-05-07T05:58:30;100300.38;;;17.30;100.00
5413;BME280;2729;50.056;8.678;2023-05-07T06:01:00;100295.22;;;17.44;100.00
5413;BME280;2729;50.056;8.678;2023-05-07T06:03:28;100290.00;;;17.60;100.00
5413;BME280;2729;50.056;8.678;2023-05-07T06:05:56;100293.09;;;17.68;100.00
5413;BME280;2729;50.056;8.678;2023-05-07T06:08:22;100300.44;;;17.79;100.00
5413;BME280;2729;50.056;8.678;2023-05-07T06:10:48;100296.72;;;17.65;100.00
5413;BME280;2729;50.056;8.678;2023-05-07T06:13:15;100299.50;;;17.80;100.00
5413;BME280;2729;50.056;8.678;2023-05-07T06:15:41;100291.84;;;17.91;100.00
5413;BME280;2729;50.056;8.678;2023-05-07T06:18:10;100299.78;;;18.07;100.00
5413;BME280;2729;50.056;8.678;2023-05-07T06:20:36;100293.13;;;18.15;100.00
5413;BME280;2729;50.056;8.678;2023-05-07T06:23:04;100290.75;;;18.11;100.00
5413;BME280;2729;50.056;8.678;2023-05-07T06:25:32;100290.66;;;17.96;100.00
5413;BME280;2729;50.056;8.678;2023-05-07T06:27:58;100291.13;;;18.20;100.00
5413;BME280;2729;50.056;8.678;2023-05-07T06:30:25;100297.16;;;18.22;100.00
5413;BME280;2729;50.056;8.678;2023-05-07T06:32:54;100299.19;;;18.33;100.00
5413;BME280;2729;50.056;8.678;2023-05-07T06:35:20;100308.03;;;18.00;100.00
5413;BME280;2729;50.056;8.678;2023-05-07T06:37:46;100304.91;;;18.10;100.00
5413;BME280;2729;50.056;8.678;2023-05-07T06:40:17;100308.47;;;18.56;100.00
5413;BME280;2729;50.056;8.678;2023-05-07T06:42:44;100301.22;;;18.75;100.00
5413;BME280;2729;50.056;8.678;2023-05-07T06:45:29;100305.69;;;18.89;100.00
5413;BME280;2729;50.056;8.678;2023-05-07T06:47:56;100304.25;;;18.83;100.00
5413;BME280;2729;50.056;8.678;2023-05-07T06:50:23;100304.06;;;18.41;100.00
5413;BME280;2729;50.056;8.678;2023-05-07T06:52:50;100300.72;;;18.53;100.00
5413;BME280;2729;50.056;8.678;2023-05-07T06:55:16;100300.50;;;18.87;100.00
5413;BME280;2729;50.056;8.678;2023-05-07T06:57:42;100298.13;;;18.83;100.00
5413;BME280;2729;50.056;8.678;2023-05-07T07:00:08;100294.41;;;18.71;100.00
5413;BME280;2729;50.056;8.678;2023-05-07T07:02:44;100302.41;;;18.70;100.00
5413;BME280;2729;50.056;8.678;2023-05-07T07:05:11;100293.28;;;18.75;100.00
5413;BME280;2729;50.056;8.678;2023-05-07T07:07:37;100308.38;;;18.73;100.00
5413;BME280;2729;50.056;8.678;2023-05-07T07:10:04;100301.22;;;18.75;100.00
5413;BME280;2729;50.056;8.678;2023-05-07T07:12:31;100305.53;;;19.06;100.00
5413;BME280;2729;50.056;8.678;2023-05-07T07:14:57;100300.56;;;19.16;100.00
5413;BME280;2729;50.056;8.678;2023-05-07T07:17:23;100305.50;;;19.36;100.00
5413;BME280;2729;50.056;8.678;2023-05-07T07:19:49;100305.19;;;19.12;100.00
5413;BME280;2729;50.056;8.678;2023-05-07T07:22:15;100302.41;;;19.58;100.00
5413;BME280;2729;50.056;8.678;2023-05-07T07:24:41;100302.28;;;19.45;100.00
5413;BME280;2729;50.056;8.678;2023-05-07T07:27:09;100313.38;;;19.08;100.00
5413;BME280;2729;50.056;8.678;2023-05-07T07:29:35;100318.78;;;18.76;100.00
5413;BME280;2729;50.056;8.678;2023-05-07T07:32:02;100316.06;;;19.22;100.00
5413;BME280;2729;50.056;8.678;2023-05-07T07:34:30;100317.28;;;19.61;100.00
5413;BME280;2729;50.056;8.678;2023-05-07T07:36:56;100318.59;;;19.53;100.00
5413;BME280;2729;50.056;8.678;2023-05-07T07:39:23;100307.63;;;19.59;100.00
5413;BME280;2729;50.056;8.678;2023-05-07T07:41:52;100312.16;;;19.86;100.00
5413;BME280;2729;50.056;8.678;2023-05-07T07:44:19;100312.09;;;20.14;100.00
5413;BME280;2729;50.056;8.678;2023-05-07T07:46:51;100307.19;;;20.08;100.00
5413;BME280;2729;50.056;8.678;2023-05-07T07:49:17;100312.16;;;20.27;100.00
5413;BME280;2729;50.056;8.678;2023-05-07T07:51:43;100316.78;;;20.38;100.00
5413;BME280;2729;50.056;8.678;2023-05-07T07:54:11;100320.75;;;20.04;100.00
5413;BME280;2729;50.056;8.678;2023-05-07T07:56:38;100322.38;;;19.92;100.00
5413;BME280;2729;50.056;8.678;2023-05-07T07:59:05;100317.25;;;19.89;100.00
5413;BME280;2729;50.056;8.678;2023-05-07T08:01:33;100328.13;;;19.99;100.00
5413;BME280;2729;50.056;8.678;2023-05-07T08:03:59;100324.25;;;20.04;100.00
5413;BME280;2729;50.056;8.678;2023-05-07T08:06:26;100323.22;;;19.64;100.00
5413;BME280;2729;50.056;8.678;2023-05-07T08:08:53;100321.41;;;20.07;100.00
5413;BME280;2729;50.056;8.678;2023-05-07T08:11:19;100315.53;;;20.02;100.00
5413;BME280;2729;50.056;8.678;2023-05-07T08:13:45;100320.97;;;20.69;100.00
5413;BME280;2729;50.056;8.678;2023-05-07T08:16:12;100321.59;;;20.99;99.50
5413;BME280;2729;50.056;8.678;2023-05-07T08:18:39;100320.53;;;21.02;95.45
5413;BME280;2729;50.056;8.678;2023-05-07T08:21:05;100327.34;;;21.06;93.46
5413;BME280;2729;50.056;8.678;2023-05-07T08:23:31;100328.41;;;21.16;92.92
5413;BME280;2729;50.056;8.678;2023-05-07T08:25:58;100324.97;;;20.89;89.91
5413;BME280;2729;50.056;8.678;2023-05-07T08:28:25;100322.13;;;21.04;93.99
5413;BME280;2729;50.056;8.678;2023-05-07T08:30:51;100317.34;;;20.97;92.09
5413;BME280;2729;50.056;8.678;2023-05-07T08:33:17;100316.41;;;20.98;92.28
5413;BME280;2729;50.056;8.678;2023-05-07T08:35:43;100315.34;;;21.13;92.70
5413;BME280;2729;50.056;8.678;2023-05-07T08:38:11;100320.53;;;21.02;91.64
5413;BME280;2729;50.056;8.678;2023-05-07T08:40:39;100316.41;;;20.98;91.83
5413;BME280;2729;50.056;8.678;2023-05-07T08:43:14;100314.19;;;21.17;92.88
5413;BME280;2729;50.056;8.678;2023-05-07T08:45:41;100314.19;;;21.17;94.03
5413;BME280;2729;50.056;8.678;2023-05-07T08:48:15;100311.53;;;21.17;90.02
5413;BME280;2729;50.056;8.678;2023-05-07T08:50:43;100313.19;;;20.93;91.20
5413;BME280;2729;50.056;8.678;2023-05-07T08:53:09;100320.19;;;21.33;89.08
5413;BME280;2729;50.056;8.678;2023-05-07T08:55:35;100316.91;;;21.42;88.71
5413;BME280;2729;50.056;8.678;2023-05-07T08:58:01;100318.69;;;21.42;88.62
5413;BME280;2729;50.056;8.678;2023-05-07T09:00:29;100323.47;;;21.49;86.46
5413;BME280;2729;50.056;8.678;2023-05-07T09:02:56;100318.59;;;21.43;88.21
5413;BME280;2729;50.056;8.678;2023-05-07T09:05:22;100310.63;;;21.43;86.61
5413;BME280;2729;50.056;8.678;2023-05-07T09:07:49;100312.75;;;21.51;84.60
5413;BME280;2729;50.056;8.678;2023-05-07T09:10:16;100312.09;;;21.73;84.63
5413;BME280;2729;50.056;8.678;2023-05-07T09:12:46;100319.75;;;21.77;84.60
5413;BME280;2729;50.056;8.678;2023-05-07T09:15:13;100321.25;;;21.69;82.55
5413;BME280;2729;50.056;8.678;2023-05-07T09:17:39;100317.31;;;21.49;85.34
5413;BME280;2729;50.056;8.678;2023-05-07T09:20:07;100314.31;;;22.04;84.90
5413;BME280;2729;50.056;8.678;2023-05-07T09:22:33;100304.53;;;22.29;85.43
5413;BME280;2729;50.056;8.678;2023-05-07T09:25:08;100303.97;;;22.36;79.55
5413;BME280;2729;50.056;8.678;2023-05-07T09:27:36;100310.38;;;22.58;78.20
5413;BME280;2729;50.056;8.678;2023-05-07T09:30:04;100306.25;;;22.54;75.50
5413;BME280;2729;50.056;8.678;2023-05-07T09:32:34;100311.22;;;22.58;76.08
5413;BME280;2729;50.056;8.678;2023-05-07T09:35:01;100311.91;;;22.73;77.44
5413;BME280;2729;50.056;8.678;2023-05-07T09:37:30;100317.91;;;22.88;75.76
5413;BME280;2729;50.056;8.678;2023-05-07T09:39:56;100316.84;;;22.90;74.30
5413;BME280;2729;50.056;8.678;2023-05-07T09:42:24;100314.31;;;23.00;72.80
5413;BME280;2729;50.056;8.678;2023-05-07T09:44:52;100316.13;;;22.99;73.26
5413;BME280;2729;50.056;8.678;2023-05-07T09:47:24;100307.88;;;23.37;71.84
5413;BME280;2729;50.056;8.678;2023-05-07T09:49:56;100303.19;;;23.52;72.64
5413;BME280;2729;50.056;8.678;2023-05-07T09:52:23;100302.66;;;23.25;74.61
5413;BME280;2729;50.056;8.678;2023-05-07T09:54:53;100307.16;;;23.35;72.83
5413;BME280;2729;50.056;8.678;2023-05-07T09:57:23;100304.41;;;22.78;80.30
5413;BME280;2729;50.056;8.678;2023-05-07T09:59:56;100303.75;;;22.87;79.64
5413;BME280;2729;50.056;8.678;2023-05-07T10:02:23;100310.44;;;22.93;75.29
5413;BME280;2729;50.056;8.678;2023-05-07T10:04:54;100305.03;;;23.05;70.77
5413;BME280;2729;50.056;8.678;2023-05-07T10:07:29;100303.81;;;23.09;77.07
5413;BME280;2729;50.056;8.678;2023-05-07T10:09:59;100300.06;;;23.12;76.69
5413;BME280;2729;50.056;8.678;2023-05-07T10:12:34;100306.63;;;23.19;76.30
5413;BME280;2729;50.056;8.678;2023-05-07T10:15:07;100295.00;;;23.20;74.20
5413;BME280;2729;50.056;8.678;2023-05-07T10:17:37;100300.72;;;23.38;74.91
5413;BME280;2729;50.056;8.678;2023-05-07T10:20:06;100292.53;;;23.41;73.86
5413;BME280;2729;50.056;8.678;2023-05-07T10:22:43;100294.22;;;23.53;74.54
5413;BME280;2729;50.056;8.678;2023-05-07T10:25:20;100290.53;;;23.21;71.27
5413;BME280;2729;50.056;8.678;2023-05-07T10:27:47;100292.94;;;23.13;69.20
5413;BME280;2729;50.056;8.678;2023-05-07T10:33:03;100286.53;;;23.15;74.65
5413;BME280;2729;50.056;8.678;2023-05-07T10:35:38;100287.28;;;23.28;72.13
5413;BME280;2729;50.056;8.678;2023-05-07T10:38:04;100291.31;;;23.45;73.87
5413;BME280;2729;50.056;8.678;2023-05-07T10:40:32;100293.19;;;23.56;73.08
5413;BME280;2729;50.056;8.678;2023-05-07T10:43:04;100282.16;;;23.71;72.37
5413;BME280;2729;50.056;8.678;2023-05-07T10:46:17;100282.28;;;23.70;72.54
5413;BME280;2729;50.056;8.678;2023-05-07T10:51:35;100282.88;;;23.62;72.97
5413;BME280;2729;50.056;8.678;2023-05-07T10:56:52;100279.44;;;24.59;67.96
5413;BME280;2729;50.056;8.678;2023-05-07T10:59:31;100276.75;;;24.27;69.81
5413;BME280;2729;50.056;8.678;2023-05-07T11:02:08;100276.75;;;24.27;65.99
5413;BME280;2729;50.056;8.678;2023-05-07T11:05:21;100264.03;;;24.09;65.46
5413;BME280;2729;50.056;8.678;2023-05-07T11:07:59;100278.38;;;23.96;73.32
5413;BME280;2729;50.056;8.678;2023-05-07T11:10:55;100279.78;;;24.34;69.35
5413;BME280;2729;50.056;8.678;2023-05-07T11:13:48;100276.72;;;24.71;63.91
5413;BME280;2729;50.056;8.678;2023-05-07T11:16:42;100283.91;;;24.27;68.10
5413;BME280;2729;50.056;8.678;2023-05-07T11:19:48;100276.41;;;24.85;66.43
5413;BME280;2729;50.056;8.678;2023-05-07T11:25:18;100270.28;;;24.73;63.54
5413;BME280;2729;50.056;8.678;2023-05-07T11:27:46;100273.91;;;24.72;63.58
5413;BME280;2729;50.056;8.678;2023-05-07T11:30:19;100263.03;;;24.64;61.83
5413;BME280;2729;50.056;8.678;2023-05-07T11:32:47;100265.22;;;24.91;63.75
5413;BME280;2729;50.056;8.678;2023-05-07T11:35:15;100265.63;;;24.54;66.38
5413;BME280;2729;50.056;8.678;2023-05-07T11:37:42;100262.69;;;24.57;66.23
5413;BME280;2729;50.056;8.678;2023-05-07T11:40:11;100258.34;;;24.56;66.99
5413;BME280;2729;50.056;8.678;2023-05-07T11:42:38;100257.44;;;24.35;67.95
5413;BME280;2729;50.056;8.678;2023-05-07T11:45:32;100254.41;;;25.13;62.91
5413;BME280;2729;50.056;8.678;2023-05-07T11:48:03;100242.41;;;25.28;58.76
5413;BME280;2729;50.056;8.678;2023-05-07T11:50:30;100242.19;;;25.41;59.30
5413;BME280;2729;50.056;8.678;2023-05-07T11:52:56;100255.72;;;25.19;60.65
5413;BME280;2729;50.056;8.678;2023-05-07T11:55:24;100247.66;;;25.40;62.85
5413;BME280;2729;50.056;8.678;2023-05-07T11:57:51;100242.88;;;24.92;61.49
5413;BME280;2729;50.056;8.678;2023-05-07T12:00:17;100237.78;;;25.30;59.91
5413;BME280;2729;50.056;8.678;2023-05-07T12:02:45;100252.00;;;25.10;60.84
5413;BME280;2729;50.056;8.678;2023-05-07T12:05:11;100239.31;;;25.63;58.18
5413;BME280;2729;50.056;8.678;2023-05-07T12:07:37;100236.97;;;25.40;59.35
5413;BME280;2729;50.056;8.678;2023-05-07T12:10:07;100231.28;;;25.63;58.24
5413;BME280;2729;50.056;8.678;2023-05-07T12:12:45;100233.09;;;25.23;57.44
5413;BME280;2729;50.056;8.678;2023-05-07T12:15:31;100230.91;;;25.38;55.03
5413;BME280;2729;50.056;8.678;2023-05-07T12:17:57;100226.81;;;25.33;52.44
5413;BME280;2729;50.056;8.678;2023-05-07T12:20:23;100238.72;;;24.99;60.94
5413;BME280;2729;50.056;8.678;2023-05-07T12:22:49;100235.56;;;25.66;55.68
5413;BME280;2729;50.056;8.678;2023-05-07T12:25:19;100228.84;;;25.81;53.49
5413;BME280;2729;50.056;8.678;2023-05-07T12:27:51;100228.72;;;25.92;55.36
5413;BME280;2729;50.056;8.678;2023-05-07T12:30:21;100219.09;;;26.30;53.63
5413;BME280;2729;50.056;8.678;2023-05-07T12:32:47;100221.09;;;25.48;57.55
5413;BME280;2729;50.056;8.678;2023-05-07T12:35:36;100227.34;;;25.27;60.41
5413;BME280;2729;50.056;8.678;2023-05-07T12:38:02;100229.13;;;25.78;53.64
5413;BME280;2729;50.056;8.678;2023-05-07T12:40:37;100215.53;;;26.01;53.33
5413;BME280;2729;50.056;8.678;2023-05-07T12:43:06;100229.84;;;25.80;52.91
5413;BME280;2729;50.056;8.678;2023-05-07T12:45:41;100223.59;;;25.70;55.48
5413;BME280;2729;50.056;8.678;2023-05-07T12:48:09;100208.28;;;25.72;52.57
5413;BME280;2729;50.056;8.678;2023-05-07T12:50:35;100209.97;;;25.73;52.58
5413;BME280;2729;50.056;8.678;2023-05-07T12:53:05;100221.09;;;25.48;55.90
5413;BME280;2729;50.056;8.678;2023-05-07T12:55:40;100212.34;;;25.67;54.22
5413;BME280;2729;50.056;8.678;2023-05-07T12:58:07;100215.38;;;25.22;58.75
5413;BME280;2729;50.056;8.678;2023-05-07T13:00:37;100205.78;;;25.50;58.55
5413;BME280;2729;50.056;8.678;2023-05-07T13:03:04;100208.16;;;25.43;56.56
5413;BME280;2729;50.056;8.678;2023-05-07T13:05:33;100211.25;;;25.79;56.68
5413;BME280;2729;50.056;8.678;2023-05-07T13:08:00;100205.63;;;25.82;55.93
5413;BME280;2729;50.056;8.678;2023-05-07T13:10:27;100209.53;;;25.07;61.17
5413;BME280;2729;50.056;8.678;2023-05-07T13:12:53;100214.41;;;25.23;59.12
5413;BME280;2729;50.056;8.678;2023-05-07T13:15:19;100203.91;;;25.71;54.87
5413;BME280;2729;50.056;8.678;2023-05-07T13:17:46;100201.66;;;25.76;56.88
5413;BME280;2729;50.056;8.678;2023-05-07T13:20:12;100198.94;;;26.26;50.91
5413;BME280;2729;50.056;8.678;2023-05-07T13:22:41;100193.06;;;26.32;49.90
5413;BME280;2729;50.056;8.678;2023-05-07T13:25:07;100203.94;;;25.90;54.75